createdAt,value
2022-12-13T00:00:32.243Z,6.27
2022-12-13T00:02:59.361Z,6.13
2022-12-13T00:05:26.461Z,6.57
2022-12-13T00:07:53.643Z,6.23
2022-12-13T00:10:20.803Z,6.07
2022-12-13T00:12:47.904Z,6.47
2022-12-13T00:15:15.173Z,5.67
2022-12-13T00:17:42.385Z,5.70
2022-12-13T00:20:09.651Z,6.20
2022-12-13T00:22:36.811Z,6.37
2022-12-13T00:25:04.672Z,6.00
2022-12-13T00:27:32.028Z,5.53
2022-12-13T00:29:59.180Z,5.60
2022-12-13T00:32:26.289Z,4.90
2022-12-13T00:34:53.381Z,6.70
2022-12-13T00:37:20.594Z,4.80
2022-12-13T00:39:47.893Z,5.37
2022-12-13T00:42:15.091Z,5.20
2022-12-13T00:44:42.207Z,4.93
2022-12-13T00:47:09.314Z,4.83
2022-12-13T00:49:36.424Z,5.13
2022-12-13T00:52:03.569Z,5.83
2022-12-13T00:54:30.716Z,6.03
2022-12-13T00:56:57.805Z,5.33
2022-12-13T00:59:25.125Z,5.23
2022-12-13T01:01:53.602Z,4.63
2022-12-13T01:04:21.034Z,5.30
2022-12-13T01:06:49.997Z,5.77
2022-12-13T01:09:19.457Z,4.83
2022-12-13T01:11:46.878Z,5.13
2022-12-13T01:14:14.431Z,4.97
2022-12-13T01:16:41.646Z,5.20
2022-12-13T01:19:09.022Z,4.57
2022-12-13T01:21:36.173Z,5.07
2022-12-13T01:24:04.355Z,5.27
2022-12-13T01:26:32.250Z,5.77
2022-12-13T01:28:59.312Z,5.23
2022-12-13T01:31:26.492Z,4.70
2022-12-13T01:33:53.607Z,4.80
2022-12-13T01:36:27.342Z,5.03
2022-12-13T01:38:58.086Z,5.10
2022-12-13T01:41:27.359Z,4.53
2022-12-13T01:43:55.818Z,4.17
2022-12-13T01:46:23.003Z,4.63
2022-12-13T01:48:56.437Z,4.90
2022-12-13T01:51:26.661Z,4.33
2022-12-13T01:53:55.012Z,4.80
2022-12-13T01:56:24.583Z,4.53
2022-12-13T01:58:53.144Z,4.33
2022-12-13T02:01:20.372Z,4.27
2022-12-13T02:03:48.268Z,4.50
2022-12-13T02:06:17.826Z,4.27
2022-12-13T02:08:45.282Z,4.20
2022-12-13T02:11:12.635Z,4.73
2022-12-13T02:13:39.821Z,4.10
2022-12-13T02:16:25.584Z,4.90
2022-12-13T02:19:01.322Z,4.43
2022-12-13T02:21:43.700Z,4.73
2022-12-13T02:24:27.510Z,4.33
2022-12-13T02:26:57.328Z,4.37
2022-12-13T02:29:35.603Z,3.70
2022-12-13T02:32:10.975Z,3.90
2022-12-13T02:34:59.132Z,4.00
2022-12-13T02:37:42.857Z,4.13
2022-12-13T02:40:15.160Z,4.17
2022-12-13T02:42:47.054Z,4.10
2022-12-13T02:45:20.360Z,4.10
2022-12-13T02:47:48.385Z,3.87
2022-12-13T02:50:15.687Z,3.87
2022-12-13T02:52:46.411Z,3.97
2022-12-13T02:55:14.892Z,3.90
2022-12-13T02:57:43.424Z,3.70
2022-12-13T03:00:31.774Z,3.77
2022-12-13T03:03:21.886Z,4.10
2022-12-13T03:06:34.071Z,4.40
2022-12-13T03:09:24.614Z,4.30
2022-12-13T03:12:19.636Z,4.30
2022-12-13T03:15:01.831Z,3.40
2022-12-13T03:17:29.993Z,3.70
2022-12-13T03:19:57.098Z,3.50
2022-12-13T03:22:24.155Z,3.50
2022-12-13T03:24:52.864Z,3.83
2022-12-13T03:27:20.038Z,3.17
2022-12-13T03:29:47.197Z,4.43
2022-12-13T03:32:14.313Z,3.20
2022-12-13T03:34:43.613Z,3.33
2022-12-13T03:37:12.063Z,3.73
2022-12-13T03:39:39.195Z,4.13
2022-12-13T03:42:06.313Z,3.97
2022-12-13T03:44:33.417Z,4.13
2022-12-13T03:47:00.876Z,3.97
2022-12-13T03:49:35.403Z,3.73
2022-12-13T03:52:03.245Z,3.87
2022-12-13T03:54:30.346Z,4.73
2022-12-13T03:56:58.023Z,4.60
2022-12-13T03:59:25.109Z,3.90
2022-12-13T04:01:52.383Z,4.37
2022-12-13T04:04:19.535Z,4.23
2022-12-13T04:06:46.714Z,4.47
2022-12-13T04:09:13.872Z,4.17
2022-12-13T04:11:59.773Z,4.63
2022-12-13T04:14:26.874Z,4.27
2022-12-13T04:16:54.078Z,4.53
2022-12-13T04:19:23.023Z,4.67
2022-12-13T04:21:51.086Z,4.57
2022-12-13T04:24:18.268Z,4.20
2022-12-13T04:26:45.337Z,4.17
2022-12-13T04:29:12.863Z,4.47
2022-12-13T04:31:39.991Z,4.20
2022-12-13T04:34:07.306Z,4.27
2022-12-13T04:36:34.392Z,5.00
2022-12-13T04:39:02.565Z,4.67
2022-12-13T04:41:34.459Z,4.40
2022-12-13T04:44:02.372Z,4.40
2022-12-13T04:46:29.715Z,4.97
2022-12-13T04:48:56.871Z,4.83
2022-12-13T04:51:24.008Z,4.13
2022-12-13T04:53:51.168Z,5.33
2022-12-13T04:56:19.916Z,4.53
2022-12-13T04:58:47.067Z,4.20
2022-12-13T05:01:14.319Z,5.20
2022-12-13T05:03:41.420Z,5.23
2022-12-13T05:06:26.753Z,5.53
2022-12-13T05:08:55.111Z,4.93
2022-12-13T05:11:35.653Z,4.93
2022-12-13T05:14:03.325Z,5.20
2022-12-13T05:16:30.529Z,4.70
2022-12-13T05:18:57.637Z,5.13
2022-12-13T05:21:24.719Z,5.53
2022-12-13T05:23:51.831Z,5.63
2022-12-13T05:26:18.902Z,5.73
2022-12-13T05:28:46.816Z,5.67
2022-12-13T05:31:22.563Z,5.00
2022-12-13T05:33:51.236Z,4.70
2022-12-13T05:36:18.492Z,4.40
2022-12-13T05:38:45.560Z,5.20
2022-12-13T05:41:17.236Z,5.10
2022-12-13T05:43:44.322Z,4.80
2022-12-13T05:46:12.265Z,5.27
2022-12-13T05:48:39.471Z,5.40
2022-12-13T05:51:10.421Z,4.63
2022-12-13T05:53:39.466Z,4.77
2022-12-13T05:56:06.585Z,4.60
2022-12-13T05:58:35.721Z,4.23
2022-12-13T06:01:21.721Z,4.70
2022-12-13T06:03:48.954Z,4.80
2022-12-13T06:06:18.133Z,4.23
2022-12-13T06:08:45.338Z,5.00
2022-12-13T06:11:12.849Z,5.27
2022-12-13T06:14:00.724Z,5.43
2022-12-13T06:16:28.053Z,4.40
2022-12-13T06:19:03.854Z,4.97
2022-12-13T06:21:41.496Z,4.77
2022-12-13T06:24:15.034Z,4.87
2022-12-13T06:26:42.145Z,5.37
2022-12-13T06:29:10.406Z,4.73
2022-12-13T06:31:37.518Z,4.50
2022-12-13T06:34:14.961Z,4.97
2022-12-13T06:36:43.769Z,4.97
2022-12-13T06:39:10.828Z,5.40
2022-12-13T06:41:37.950Z,5.17
2022-12-13T06:44:05.691Z,5.13
2022-12-13T06:46:33.280Z,5.00
2022-12-13T06:49:01.361Z,5.27
2022-12-13T06:51:32.453Z,3.97
2022-12-13T06:54:01.396Z,4.57
2022-12-13T06:56:28.793Z,5.00
2022-12-13T06:59:02.001Z,4.13
2022-12-13T07:01:37.243Z,3.83
2022-12-13T07:04:04.784Z,4.87
2022-12-13T07:06:31.971Z,5.70
2022-12-13T07:08:59.085Z,3.67
2022-12-13T07:11:27.276Z,4.30
2022-12-13T07:13:54.817Z,4.80
2022-12-13T07:16:22.644Z,5.30
2022-12-13T07:18:54.092Z,4.00
2022-12-13T07:21:28.952Z,4.60
2022-12-13T07:23:56.024Z,4.17
2022-12-13T07:26:23.312Z,4.20
2022-12-13T07:28:55.033Z,4.93
2022-12-13T07:31:24.112Z,5.30
2022-12-13T07:33:51.608Z,4.80
2022-12-13T07:36:19.912Z,4.70
2022-12-13T07:38:51.697Z,4.57
2022-12-13T07:41:23.633Z,5.03
2022-12-13T07:43:55.346Z,4.13
2022-12-13T07:46:33.250Z,4.57
2022-12-13T07:49:04.499Z,5.40
2022-12-13T07:51:33.707Z,5.20
2022-12-13T07:54:00.801Z,5.37
2022-12-13T07:56:33.812Z,5.50
2022-12-13T07:59:00.960Z,5.13
2022-12-13T08:01:29.188Z,5.40
2022-12-13T08:03:56.388Z,5.30
2022-12-13T08:06:23.457Z,5.67
2022-12-13T08:08:51.704Z,5.00
2022-12-13T08:11:18.871Z,4.07
2022-12-13T08:13:45.962Z,4.20
2022-12-13T08:16:27.311Z,4.87
2022-12-13T08:19:02.014Z,4.63
2022-12-13T08:21:53.397Z,5.00
2022-12-13T08:24:17.859Z,4.50
2022-12-13T08:26:45.055Z,4.50
2022-12-13T08:29:22.327Z,4.53
2022-12-13T08:31:50.778Z,4.60
2022-12-13T08:34:17.915Z,3.77
2022-12-13T08:36:45.006Z,3.90
2022-12-13T08:39:12.176Z,3.23
2022-12-13T08:41:39.552Z,3.73
2022-12-13T08:44:06.862Z,3.90
2022-12-13T08:46:34.022Z,3.70
2022-12-13T08:49:01.210Z,3.73
2022-12-13T08:51:35.241Z,3.60
2022-12-13T08:54:10.783Z,4.77
2022-12-13T08:56:38.914Z,5.30
2022-12-13T08:59:11.006Z,4.90
2022-12-13T09:01:38.128Z,5.07
2022-12-13T09:04:05.279Z,4.77
2022-12-13T09:06:32.476Z,4.50
2022-12-13T09:08:59.691Z,4.63
2022-12-13T09:11:36.640Z,4.97
2022-12-13T09:14:07.085Z,3.97
2022-12-13T09:16:41.138Z,3.67
2022-12-13T09:19:25.176Z,4.10
2022-12-13T09:21:53.793Z,4.23
2022-12-13T09:24:36.404Z,5.10
2022-12-13T09:27:09.678Z,4.23
2022-12-13T09:29:38.090Z,5.00
2022-12-13T09:32:05.478Z,5.53
2022-12-13T09:34:36.053Z,5.23
2022-12-13T09:37:03.246Z,5.07
2022-12-13T09:39:30.348Z,4.80
2022-12-13T09:42:00.611Z,5.37
2022-12-13T09:44:42.528Z,5.27
2022-12-13T09:47:22.746Z,5.40
2022-12-13T09:49:52.774Z,4.90
2022-12-13T09:52:22.535Z,5.47
2022-12-13T09:54:51.366Z,4.10
2022-12-13T09:57:30.838Z,4.37
2022-12-13T10:00:02.235Z,4.53
2022-12-13T10:02:32.060Z,4.57
2022-12-13T10:05:22.678Z,4.03
2022-12-13T10:07:53.650Z,4.27
2022-12-13T10:10:20.844Z,6.33
2022-12-13T10:12:53.188Z,4.70
2022-12-13T10:15:22.225Z,4.90
2022-12-13T10:17:54.907Z,4.07
2022-12-13T10:20:26.086Z,4.73
2022-12-13T10:23:30.193Z,5.37
2022-12-13T10:25:52.040Z,4.87
2022-12-13T10:28:20.416Z,4.63
2022-12-13T10:30:47.569Z,4.47
2022-12-13T10:33:24.237Z,5.10
2022-12-13T10:36:16.067Z,4.87
2022-12-13T10:38:45.524Z,5.67
2022-12-13T10:41:31.481Z,5.83
2022-12-13T10:44:17.183Z,5.27
2022-12-13T10:46:49.758Z,4.83
2022-12-13T10:49:24.380Z,5.13
2022-12-13T10:51:53.321Z,5.43
2022-12-13T10:54:27.813Z,5.23
2022-12-13T10:57:00.008Z,4.70
2022-12-13T10:59:37.109Z,5.77
2022-12-13T11:02:26.965Z,4.90
2022-12-13T11:04:54.649Z,6.00
2022-12-13T11:07:26.268Z,5.13
2022-12-13T11:09:53.459Z,5.87
2022-12-13T11:12:22.032Z,5.70
2022-12-13T11:14:58.064Z,5.53
2022-12-13T11:17:27.087Z,5.73
2022-12-13T11:20:04.506Z,5.87
2022-12-13T11:22:33.000Z,5.50
2022-12-13T11:25:10.373Z,5.40
2022-12-13T11:27:40.741Z,6.00
2022-12-13T11:30:19.783Z,6.10
2022-12-13T11:33:10.231Z,5.47
2022-12-13T11:35:37.341Z,5.67
2022-12-13T11:38:28.020Z,5.77
2022-12-13T11:41:03.989Z,5.20
2022-12-13T11:43:38.522Z,5.20
2022-12-13T11:46:12.759Z,5.97
2022-12-13T11:48:52.576Z,6.33
2022-12-13T11:51:25.249Z,5.70
2022-12-13T11:53:56.344Z,5.90
2022-12-13T11:56:26.121Z,5.17
2022-12-13T11:59:16.108Z,5.33
2022-12-13T12:01:54.109Z,5.43
2022-12-13T12:04:32.493Z,5.87
2022-12-13T12:07:24.512Z,5.27
2022-12-13T12:09:56.572Z,5.80
2022-12-13T12:12:34.170Z,5.00
2022-12-13T12:15:05.653Z,5.30
2022-12-13T12:17:42.646Z,4.87
2022-12-13T12:20:12.755Z,4.83
2022-12-13T12:22:43.992Z,4.60
2022-12-13T12:25:13.813Z,5.10
2022-12-13T12:27:55.976Z,4.43
2022-12-13T12:30:24.926Z,6.70
2022-12-13T12:33:02.418Z,7.23
2022-12-13T12:35:46.627Z,6.47
2022-12-13T12:38:23.276Z,6.70
2022-12-13T12:41:18.379Z,4.53
2022-12-13T12:43:46.158Z,5.67
2022-12-13T12:46:31.139Z,4.67
2022-12-13T12:49:16.919Z,4.87
2022-12-13T12:51:50.559Z,5.90
2022-12-13T12:54:20.456Z,5.57
2022-12-13T12:56:54.421Z,4.77
2022-12-13T12:59:26.297Z,4.93
2022-12-13T13:02:11.824Z,4.27
2022-12-13T13:04:43.038Z,4.70
2022-12-13T13:07:22.370Z,4.67
2022-12-13T13:09:51.532Z,5.63
2022-12-13T13:12:28.797Z,4.70
2022-12-13T13:14:58.170Z,4.73
2022-12-13T13:17:25.261Z,4.80
2022-12-13T13:20:07.909Z,5.63
2022-12-13T13:22:42.873Z,4.57
2022-12-13T13:25:16.043Z,5.93
2022-12-13T13:27:44.913Z,5.30
2022-12-13T13:30:22.773Z,6.63
2022-12-13T13:32:51.015Z,5.77
2022-12-13T13:35:33.574Z,6.47
2022-12-13T13:38:04.248Z,5.00
2022-12-13T13:40:31.904Z,5.20
2022-12-13T13:43:03.922Z,4.93
2022-12-13T13:45:31.443Z,5.27
2022-12-13T13:48:14.869Z,5.43
2022-12-13T13:51:14.819Z,5.30
2022-12-13T13:54:07.568Z,5.33
2022-12-13T13:56:43.394Z,5.73
2022-12-13T13:59:13.582Z,5.70
2022-12-13T14:02:00.990Z,5.67
2022-12-13T14:04:28.581Z,7.73
2022-12-13T14:07:14.313Z,7.67
2022-12-13T14:09:50.822Z,7.83
2022-12-13T14:12:20.754Z,7.33
2022-12-13T14:15:06.368Z,7.40
2022-12-13T14:17:40.591Z,6.07
2022-12-13T14:20:14.052Z,6.33
2022-12-13T14:22:41.175Z,6.97
2022-12-13T14:25:26.148Z,7.00
2022-12-13T14:27:59.334Z,8.57
2022-12-13T14:30:29.216Z,8.10
2022-12-13T14:32:57.512Z,8.23
2022-12-13T14:35:33.737Z,7.97
2022-12-13T14:38:08.108Z,7.83
2022-12-13T14:40:36.656Z,8.17
2022-12-13T14:43:03.940Z,9.03
2022-12-13T14:45:36.691Z,10.40
2022-12-13T14:48:15.342Z,9.47
2022-12-13T14:50:44.357Z,10.03
2022-12-13T14:53:26.821Z,8.93
2022-12-13T14:56:05.358Z,8.57
2022-12-13T14:58:32.677Z,8.93
2022-12-13T15:01:00.141Z,8.70
2022-12-13T15:03:28.691Z,8.47
2022-12-13T15:06:04.486Z,10.30
2022-12-13T15:08:33.492Z,9.27
2022-12-13T15:11:03.033Z,9.70
2022-12-13T15:13:43.410Z,11.13
2022-12-13T15:16:15.061Z,11.33
2022-12-13T15:18:42.272Z,11.40
2022-12-13T15:21:21.664Z,10.30
2022-12-13T15:23:49.898Z,12.33
2022-12-13T15:26:29.577Z,12.27
2022-12-13T15:29:01.784Z,10.13
2022-12-13T15:31:37.817Z,11.23
2022-12-13T15:34:28.901Z,15.43
2022-12-13T15:36:58.499Z,10.60
2022-12-13T15:39:25.932Z,9.17
2022-12-13T15:41:55.158Z,10.77
2022-12-13T15:44:29.680Z,11.10
2022-12-13T15:47:02.589Z,9.67
2022-12-13T15:49:37.817Z,9.90
2022-12-13T15:52:08.146Z,10.10
2022-12-13T15:54:35.257Z,9.70
2022-12-13T15:57:13.255Z,9.77
2022-12-13T15:59:41.065Z,10.50
2022-12-13T16:02:16.324Z,9.53
2022-12-13T16:04:43.517Z,9.83
2022-12-13T16:07:21.523Z,11.13
2022-12-13T16:09:49.271Z,8.37
2022-12-13T16:12:21.833Z,12.30
2022-12-13T16:14:50.030Z,11.63
2022-12-13T16:17:24.620Z,10.63
2022-12-13T16:19:55.480Z,10.97
2022-12-13T16:22:24.021Z,10.33
2022-12-13T16:24:51.912Z,10.63
2022-12-13T16:27:18.997Z,10.97
2022-12-13T16:29:46.098Z,13.47
2022-12-13T16:32:13.317Z,13.40
2022-12-13T16:34:40.395Z,14.67
2022-12-13T16:37:25.605Z,14.57
2022-12-13T16:39:54.017Z,12.90
2022-12-13T16:42:21.225Z,13.43
2022-12-13T16:45:11.258Z,11.97
2022-12-13T16:47:48.072Z,11.03
2022-12-13T16:50:17.519Z,12.13
2022-12-13T16:52:44.765Z,10.17
2022-12-13T16:55:12.476Z,12.60
2022-12-13T16:57:39.754Z,14.00
2022-12-13T17:00:10.033Z,15.63
2022-12-13T17:02:37.658Z,12.50
2022-12-13T17:05:05.612Z,13.07
2022-12-13T17:07:33.445Z,11.67
2022-12-13T17:10:00.549Z,11.97
2022-12-13T17:12:27.939Z,11.47
2022-12-13T17:14:55.323Z,11.90
2022-12-13T17:17:22.424Z,12.57
2022-12-13T17:19:49.575Z,13.67
2022-12-13T17:22:16.702Z,10.63
2022-12-13T17:24:46.031Z,8.93
2022-12-13T17:27:13.581Z,7.27
2022-12-13T17:29:40.795Z,7.30
2022-12-13T17:32:08.354Z,7.77
2022-12-13T17:34:35.959Z,7.37
2022-12-13T17:37:10.040Z,8.00
2022-12-13T17:39:37.659Z,7.77
2022-12-13T17:42:04.825Z,8.47
2022-12-13T17:44:31.928Z,16.37
2022-12-13T17:46:59.042Z,39.63
2022-12-13T17:49:26.120Z,45.23
2022-12-13T17:51:54.605Z,42.10
2022-12-13T17:54:25.801Z,32.57
2022-12-13T17:56:53.480Z,22.80
2022-12-13T17:59:20.966Z,18.43
2022-12-13T18:01:48.203Z,15.43
2022-12-13T18:04:15.599Z,13.53
2022-12-13T18:06:42.905Z,14.40
2022-12-13T18:09:11.933Z,13.97
2022-12-13T18:11:39.721Z,14.37
2022-12-13T18:14:08.256Z,17.37
2022-12-13T18:16:38.719Z,14.03
2022-12-13T18:19:11.399Z,14.27
2022-12-13T18:21:39.263Z,12.33
2022-12-13T18:24:07.119Z,14.00
2022-12-13T18:26:34.767Z,13.60
2022-12-13T18:29:02.177Z,13.80
2022-12-13T18:31:29.388Z,15.57
2022-12-13T18:33:56.585Z,17.20
2022-12-13T18:36:25.048Z,18.07
2022-12-13T18:38:52.280Z,20.07
2022-12-13T18:41:21.028Z,19.80
2022-12-13T18:43:48.153Z,18.50
2022-12-13T18:46:16.129Z,17.07
2022-12-13T18:48:43.348Z,16.43
2022-12-13T18:51:10.963Z,16.97
2022-12-13T18:53:39.012Z,17.33
2022-12-13T18:56:11.591Z,16.73
2022-12-13T18:58:43.368Z,17.93
2022-12-13T19:01:11.885Z,23.80
2022-12-13T19:03:39.327Z,27.00
2022-12-13T19:06:07.221Z,29.27
2022-12-13T19:08:36.446Z,26.87
2022-12-13T19:11:04.237Z,27.57
2022-12-13T19:13:32.419Z,25.23
2022-12-13T19:16:07.505Z,23.60
2022-12-13T19:18:34.978Z,21.33
2022-12-13T19:21:02.250Z,21.57
2022-12-13T19:23:29.936Z,23.80
2022-12-13T19:25:57.277Z,21.50
2022-12-13T19:28:24.408Z,21.77
2022-12-13T19:30:51.566Z,17.07
2022-12-13T19:33:18.803Z,16.13
2022-12-13T19:35:46.880Z,17.53
2022-12-13T19:38:14.565Z,16.63
2022-12-13T19:40:43.093Z,16.10
2022-12-13T19:43:11.368Z,16.93
2022-12-13T19:45:38.881Z,17.10
2022-12-13T19:48:06.019Z,16.60
2022-12-13T19:50:33.128Z,17.60
2022-12-13T19:53:00.353Z,15.27
2022-12-13T19:55:28.156Z,17.87
2022-12-13T19:57:55.261Z,17.10
2022-12-13T20:00:22.388Z,17.90
2022-12-13T20:02:50.670Z,17.57
2022-12-13T20:05:17.923Z,17.90
2022-12-13T20:07:45.052Z,17.97
2022-12-13T20:10:12.538Z,18.07
2022-12-13T20:12:41.147Z,16.67
2022-12-13T20:15:09.377Z,18.70
2022-12-13T20:17:36.570Z,19.10
2022-12-13T20:20:04.639Z,19.50
2022-12-13T20:22:32.335Z,22.87
2022-12-13T20:24:59.625Z,28.27
2022-12-13T20:27:27.141Z,34.50
2022-12-13T20:29:54.299Z,36.17
2022-12-13T20:32:21.405Z,35.80
2022-12-13T20:34:54.350Z,35.47
2022-12-13T20:37:22.104Z,35.30
2022-12-13T20:39:49.402Z,36.93
2022-12-13T20:42:16.574Z,38.87
2022-12-13T20:44:43.673Z,38.07
2022-12-13T20:47:10.906Z,37.43
2022-12-13T20:49:38.081Z,40.13
2022-12-13T20:52:05.208Z,40.10
2022-12-13T20:54:32.298Z,42.37
2022-12-13T20:56:59.634Z,42.47
2022-12-13T20:59:26.721Z,41.77
2022-12-13T21:01:53.914Z,44.03
2022-12-13T21:04:21.103Z,45.00
2022-12-13T21:06:48.476Z,48.73
2022-12-13T21:09:15.785Z,50.53
2022-12-13T21:11:44.304Z,51.70
2022-12-13T21:14:21.343Z,47.50
2022-12-13T21:16:50.327Z,48.10
2022-12-13T21:19:19.546Z,48.97
2022-12-13T21:21:47.363Z,56.27
2022-12-13T21:24:15.139Z,55.87
2022-12-13T21:26:42.640Z,46.00
2022-12-13T21:29:11.090Z,58.03
2022-12-13T21:31:38.786Z,69.50
2022-12-13T21:34:06.575Z,66.40
2022-12-13T21:36:37.961Z,56.87
2022-12-13T21:39:06.965Z,71.10
2022-12-13T21:41:34.359Z,67.20
2022-12-13T21:44:01.902Z,59.97
2022-12-13T21:46:47.816Z,55.70
2022-12-13T21:49:16.809Z,58.30
2022-12-13T21:51:47.800Z,57.70
2022-12-13T21:54:15.823Z,62.83
2022-12-13T21:57:01.677Z,84.10
2022-12-13T21:59:28.973Z,68.50
2022-12-13T22:02:12.371Z,66.10
2022-12-13T22:04:40.800Z,65.63
2022-12-13T22:07:08.749Z,67.57
2022-12-13T22:09:36.724Z,68.00
2022-12-13T22:12:07.623Z,65.30
2022-12-13T22:14:34.732Z,70.00
2022-12-13T22:17:01.921Z,74.90
2022-12-13T22:19:29.200Z,94.87
2022-12-13T22:21:56.333Z,108.50
2022-12-13T22:24:23.407Z,112.13
2022-12-13T22:26:50.674Z,91.93
2022-12-13T22:29:17.769Z,78.43
2022-12-13T22:31:48.796Z,60.37
2022-12-13T22:34:17.610Z,60.30
2022-12-13T22:36:44.896Z,65.27
2022-12-13T22:39:18.898Z,59.73
2022-12-13T22:41:46.500Z,71.77
2022-12-13T22:44:14.205Z,74.80
2022-12-13T22:46:41.660Z,75.50
2022-12-13T22:49:09.012Z,71.50
2022-12-13T22:51:36.348Z,79.93
2022-12-13T22:54:03.495Z,85.50
2022-12-13T22:56:31.042Z,124.03
2022-12-13T22:59:01.758Z,105.80
2022-12-13T23:01:30.359Z,84.83
2022-12-13T23:03:57.752Z,73.40
2022-12-13T23:06:26.168Z,65.53
2022-12-13T23:08:54.931Z,60.37
2022-12-13T23:11:41.394Z,62.03
2022-12-13T23:14:09.583Z,60.63
2022-12-13T23:16:37.941Z,57.60
2022-12-13T23:19:39.805Z,56.07
2022-12-13T23:21:53.676Z,54.80
2022-12-13T23:24:20.757Z,57.37
2022-12-13T23:26:47.849Z,61.37
2022-12-13T23:29:15.226Z,57.07
2022-12-13T23:31:43.043Z,60.47
2022-12-13T23:34:16.186Z,90.50
2022-12-13T23:36:43.306Z,82.30
2022-12-13T23:39:11.813Z,93.47
2022-12-13T23:41:39.113Z,109.47
2022-12-13T23:44:06.188Z,102.73
2022-12-13T23:46:34.805Z,85.73
2022-12-13T23:49:02.727Z,75.57
2022-12-13T23:51:29.886Z,61.43
2022-12-13T23:53:57.169Z,60.60
2022-12-13T23:56:24.382Z,56.57
2022-12-13T23:58:51.526Z,52.90
